createdAt,value
2023-05-04T00:03:07.195Z,5.43
2023-05-04T00:08:09.033Z,5.65
2023-05-04T00:13:10.843Z,3.85
2023-05-04T00:18:12.645Z,5.30
2023-05-04T00:23:14.330Z,5.25
2023-05-04T00:28:15.985Z,6.07
2023-05-04T00:33:17.847Z,5.97
2023-05-04T00:38:19.529Z,5.70
2023-05-04T00:43:21.242Z,6.43
2023-05-04T00:48:23.335Z,6.13
2023-05-04T00:53:25.080Z,5.43
2023-05-04T00:58:26.737Z,5.53
2023-05-04T01:03:28.684Z,5.50
2023-05-04T01:08:39.397Z,5.32
2023-05-04T01:13:41.223Z,5.78
2023-05-04T01:18:42.892Z,5.68
2023-05-04T01:23:44.572Z,7.32
2023-05-04T01:28:46.152Z,6.78
2023-05-04T01:33:49.549Z,6.32
2023-05-04T01:38:55.257Z,6.25
2023-05-04T01:43:57.859Z,6.82
2023-05-04T01:49:01.595Z,6.38
2023-05-04T01:54:03.283Z,5.25
2023-05-04T01:59:05.901Z,6.75
2023-05-04T02:04:08.134Z,6.43
2023-05-04T02:09:09.941Z,6.30
2023-05-04T02:14:11.620Z,5.82
2023-05-04T02:19:13.272Z,6.45
2023-05-04T02:24:14.925Z,6.43
2023-05-04T02:29:16.517Z,6.20
2023-05-04T02:34:18.352Z,6.70
2023-05-04T02:39:22.814Z,6.22
2023-05-04T02:44:24.415Z,5.95
2023-05-04T02:49:26.682Z,6.18
2023-05-04T02:54:28.409Z,6.85
2023-05-04T02:59:30.012Z,6.85
2023-05-04T03:04:31.874Z,6.30
2023-05-04T03:09:33.547Z,7.20
2023-05-04T03:14:35.234Z,6.18
2023-05-04T03:19:37.296Z,6.80
2023-05-04T03:24:40.549Z,8.20
2023-05-04T03:29:42.591Z,6.80
2023-05-04T03:34:45.880Z,7.25
2023-05-04T03:39:48.541Z,6.75
2023-05-04T03:44:50.742Z,6.97
2023-05-04T03:49:52.619Z,6.95
2023-05-04T03:54:55.587Z,7.78
2023-05-04T03:59:58.015Z,6.93
2023-05-04T04:05:00.674Z,7.40
2023-05-04T04:10:03.357Z,6.78
2023-05-04T04:15:05.741Z,6.78
2023-05-04T04:20:09.004Z,7.50
2023-05-04T04:25:10.749Z,7.30
2023-05-04T04:30:13.560Z,5.50
2023-05-04T04:35:15.643Z,7.13
2023-05-04T04:40:18.124Z,6.57
2023-05-04T04:45:20.517Z,6.47
2023-05-04T04:50:22.576Z,6.95
2023-05-04T04:55:25.919Z,5.97
2023-05-04T05:00:27.697Z,6.65
2023-05-04T05:05:31.547Z,7.05
2023-05-04T05:10:33.555Z,6.35
2023-05-04T05:15:35.555Z,6.10
2023-05-04T05:20:37.214Z,4.43
2023-05-04T05:25:39.355Z,5.18
2023-05-04T05:30:41.099Z,5.97
2023-05-04T05:35:43.394Z,5.20
2023-05-04T05:40:45.062Z,4.47
2023-05-04T05:45:46.702Z,4.95
2023-05-04T05:50:48.342Z,5.47
2023-05-04T05:55:50.000Z,3.50
2023-05-04T06:00:51.627Z,4.18
2023-05-04T06:05:53.222Z,4.95
2023-05-04T06:10:56.412Z,4.07
2023-05-04T06:15:58.134Z,3.65
2023-05-04T06:21:00.698Z,4.05
2023-05-04T06:26:02.727Z,4.22
2023-05-04T06:31:04.474Z,3.30
2023-05-04T06:36:06.423Z,4.18
2023-05-04T06:41:08.138Z,3.92
2023-05-04T06:46:09.982Z,4.30
2023-05-04T06:51:11.655Z,4.75
2023-05-04T06:56:13.322Z,3.15
2023-05-04T07:01:16.903Z,4.05
2023-05-04T07:06:21.101Z,4.10
2023-05-04T07:11:23.536Z,2.70
2023-05-04T07:16:26.339Z,4.03
2023-05-04T07:21:29.485Z,3.70
2023-05-04T07:26:31.559Z,3.03
2023-05-04T07:31:33.796Z,2.85
2023-05-04T07:36:35.756Z,3.05
2023-05-04T07:41:37.746Z,2.78
2023-05-04T07:46:39.509Z,3.70
2023-05-04T07:51:41.480Z,2.30
2023-05-04T07:56:43.187Z,2.25
2023-05-04T08:01:44.889Z,3.25
2023-05-04T08:06:46.882Z,1.95
2023-05-04T08:11:50.382Z,3.15
2023-05-04T08:16:52.021Z,3.22
2023-05-04T08:21:53.771Z,2.35
2023-05-04T08:27:07.149Z,2.13
2023-05-04T08:32:10.105Z,2.80
2023-05-04T08:37:11.830Z,2.03
2023-05-04T08:42:13.499Z,3.00
2023-05-04T08:47:15.384Z,2.42
2023-05-04T08:52:17.746Z,3.45
2023-05-04T08:57:19.794Z,2.50
2023-05-04T09:02:23.409Z,1.85
2023-05-04T09:07:25.335Z,2.03
2023-05-04T09:12:27.866Z,1.77
2023-05-04T09:17:29.740Z,2.22
2023-05-04T09:22:31.515Z,2.15
2023-05-04T09:27:33.216Z,1.85
2023-05-04T09:32:48.522Z,1.73
2023-05-04T09:37:50.198Z,1.83
2023-05-04T09:42:56.854Z,2.15
2023-05-04T09:47:58.738Z,1.38
2023-05-04T09:53:00.962Z,1.55
2023-05-04T09:58:02.792Z,1.77
2023-05-04T10:03:06.344Z,2.38
2023-05-04T10:08:08.309Z,1.70
2023-05-04T10:13:10.198Z,1.48
2023-05-04T10:18:32.844Z,2.60
2023-05-04T10:24:30.584Z,2.63
2023-05-04T10:29:35.643Z,1.50
2023-05-04T10:34:37.451Z,1.88
2023-05-04T10:39:39.979Z,2.38
2023-05-04T10:44:55.110Z,3.25
2023-05-04T10:50:14.626Z,2.05
2023-05-04T10:55:17.426Z,1.63
2023-05-04T11:00:19.383Z,1.50
2023-05-04T11:05:21.037Z,1.75
2023-05-04T11:10:24.458Z,2.05
2023-05-04T11:15:26.200Z,1.65
2023-05-04T11:20:27.889Z,1.52
2023-05-04T11:25:30.652Z,2.42
2023-05-04T11:30:33.794Z,2.47
2023-05-04T11:35:35.424Z,1.92
2023-05-04T11:40:40.888Z,2.53
2023-05-04T11:45:42.734Z,2.22
2023-05-04T11:50:45.918Z,1.58
2023-05-04T11:55:47.610Z,1.90
2023-05-04T12:00:56.078Z,1.80
2023-05-04T12:05:58.782Z,1.83
2023-05-04T12:11:11.250Z,1.42
2023-05-04T12:16:20.457Z,1.85
2023-05-04T12:21:22.733Z,2.38
2023-05-04T12:26:24.604Z,1.95
2023-05-04T12:31:27.164Z,1.85
2023-05-04T12:36:28.957Z,1.65
2023-05-04T12:41:31.520Z,1.48
2023-05-04T12:46:33.304Z,3.08
2023-05-04T12:51:34.997Z,2.28
2023-05-04T12:56:37.309Z,1.60
2023-05-04T13:01:41.468Z,1.98
2023-05-04T13:06:43.235Z,1.45
2023-05-04T13:11:45.265Z,1.55
2023-05-04T13:16:48.032Z,1.42
2023-05-04T13:21:50.589Z,1.67
2023-05-04T13:26:52.231Z,1.35
2023-05-04T13:31:55.401Z,2.15
2023-05-04T13:36:57.164Z,1.10
2023-05-04T13:41:58.822Z,1.55
2023-05-04T13:47:02.173Z,1.17
2023-05-04T13:52:03.899Z,1.90
2023-05-04T13:57:05.569Z,1.90
2023-05-04T14:02:07.652Z,1.45
2023-05-04T14:07:12.045Z,1.70
2023-05-04T14:12:15.670Z,1.20
2023-05-04T14:17:17.630Z,1.60
2023-05-04T14:22:19.322Z,1.45
2023-05-04T14:27:21.131Z,1.48
2023-05-04T14:32:22.802Z,2.30
2023-05-04T14:37:24.441Z,1.90
2023-05-04T14:42:26.345Z,2.97
2023-05-04T14:47:29.053Z,1.60
2023-05-04T14:52:30.854Z,1.20
2023-05-04T14:57:33.212Z,1.13
2023-05-04T15:02:35.901Z,1.40
2023-05-04T15:07:37.896Z,1.38
2023-05-04T15:12:40.207Z,1.20
2023-05-04T15:17:42.066Z,1.42
2023-05-04T15:22:47.173Z,2.08
2023-05-04T15:27:48.767Z,1.23
2023-05-04T15:32:50.545Z,1.35
2023-05-04T15:37:52.780Z,1.25
2023-05-04T15:42:54.954Z,1.33
2023-05-04T15:47:59.399Z,2.50
2023-05-04T15:53:01.067Z,1.10
2023-05-04T15:58:03.081Z,1.88
2023-05-04T16:03:08.200Z,1.25
2023-05-04T16:08:09.960Z,1.30
2023-05-04T16:13:12.299Z,1.90
2023-05-04T16:18:14.057Z,1.63
2023-05-04T16:23:17.570Z,1.50
2023-05-04T16:28:19.222Z,1.17
2023-05-04T16:33:20.923Z,1.38
2023-05-04T16:38:22.554Z,1.65
2023-05-04T16:43:24.296Z,1.60
2023-05-04T16:48:25.964Z,2.00
2023-05-04T16:53:27.645Z,2.42
2023-05-04T16:58:29.518Z,1.52
2023-05-04T17:03:32.742Z,1.60
2023-05-04T17:08:35.017Z,1.50
2023-05-04T17:13:36.907Z,1.88
2023-05-04T17:18:38.573Z,2.58
2023-05-04T17:23:40.924Z,1.60
2023-05-04T17:28:42.899Z,1.80
2023-05-04T17:33:44.596Z,2.10
2023-05-04T17:38:46.299Z,1.77
2023-05-04T17:43:50.194Z,1.67
2023-05-04T17:48:53.186Z,1.52
2023-05-04T17:53:57.876Z,2.13
2023-05-04T17:58:59.578Z,1.75
2023-05-04T18:04:04.175Z,1.83
2023-05-04T18:09:06.097Z,1.67
2023-05-04T18:14:07.760Z,2.20
2023-05-04T18:19:09.503Z,2.10
2023-05-04T18:24:12.169Z,1.85
2023-05-04T18:29:18.899Z,1.80
2023-05-04T18:34:21.156Z,1.88
2023-05-04T18:39:22.807Z,1.80
2023-05-04T18:44:24.482Z,2.35
2023-05-04T18:49:26.138Z,2.08
2023-05-04T18:54:33.947Z,2.08
2023-05-04T18:59:36.308Z,1.73
2023-05-04T19:04:37.949Z,2.70
2023-05-04T19:09:39.819Z,2.15
2023-05-04T19:14:43.428Z,3.20
2023-05-04T19:19:45.112Z,2.45
2023-05-04T19:24:50.040Z,2.47
2023-05-04T19:29:51.681Z,4.85
2023-05-04T19:34:53.424Z,10.68
2023-05-04T19:39:55.097Z,3.97
2023-05-04T19:44:57.156Z,3.13
2023-05-04T19:49:58.950Z,1.65
2023-05-04T19:55:00.651Z,2.10
2023-05-04T20:00:03.062Z,1.67
2023-05-04T20:05:13.646Z,3.00
2023-05-04T20:10:15.322Z,3.15
2023-05-04T20:15:16.992Z,3.03
2023-05-04T20:20:20.451Z,2.83
2023-05-04T20:25:22.894Z,2.40
2023-05-04T20:30:28.079Z,2.83
2023-05-04T20:35:29.856Z,4.82
2023-05-04T20:40:32.167Z,3.33
2023-05-04T20:45:34.295Z,4.00
2023-05-04T20:50:36.006Z,4.15
2023-05-04T20:55:37.655Z,4.20
2023-05-04T21:00:40.096Z,4.53
2023-05-04T21:05:41.750Z,4.88
2023-05-04T21:10:43.395Z,3.17
2023-05-04T21:15:45.205Z,5.07
2023-05-04T21:20:47.119Z,3.42
2023-05-04T21:25:48.786Z,4.03
2023-05-04T21:30:50.455Z,3.92
2023-05-04T21:35:52.217Z,3.15
2023-05-04T21:40:53.836Z,3.85
2023-05-04T21:45:55.476Z,4.55
2023-05-04T21:50:57.231Z,3.35
2023-05-04T21:56:06.389Z,4.40
2023-05-04T22:01:08.715Z,5.00
2023-05-04T22:06:10.650Z,4.03
2023-05-04T22:11:12.302Z,4.90
2023-05-04T22:16:13.975Z,4.10
2023-05-04T22:21:15.763Z,4.53
2023-05-04T22:26:17.460Z,5.80
2023-05-04T22:31:19.325Z,5.05
2023-05-04T22:36:20.990Z,4.75
2023-05-04T22:41:22.718Z,4.55
2023-05-04T22:46:25.552Z,4.32
2023-05-04T22:51:30.376Z,4.93
2023-05-04T22:56:32.663Z,4.57
2023-05-04T23:01:34.401Z,4.90
2023-05-04T23:06:38.613Z,4.00
2023-05-04T23:11:40.693Z,4.97
2023-05-04T23:16:42.355Z,5.35
2023-05-04T23:21:43.991Z,3.67
2023-05-04T23:26:45.621Z,5.30
2023-05-04T23:31:47.324Z,4.85
2023-05-04T23:36:49.248Z,4.32
2023-05-04T23:41:50.931Z,3.33
2023-05-04T23:46:52.577Z,5.03
2023-05-04T23:51:54.215Z,3.70
2023-05-04T23:56:55.870Z,4.97
